sensor_id;sensor_type;location;lat;lon;timestamp;P1;durP1;ratioP1;P2;durP2;ratioP2
7074;SDS011;3578;51.568;6.932;2023-08-06T00:01:55;10.80;;;6.53;;
7074;SDS011;3578;51.568;6.932;2023-08-06T00:04:21;12.83;;;6.43;;
7074;SDS011;3578;51.568;6.932;2023-08-06T00:06:49;8.07;;;6.20;;
7074;SDS011;3578;51.568;6.932;2023-08-06T00:09:16;6.80;;;5.93;;
7074;SDS011;3578;51.568;6.932;2023-08-06T00:11:42;6.80;;;6.10;;
7074;SDS011;3578;51.568;6.932;2023-08-06T00:14:11;12.30;;;6.20;;
7074;SDS011;3578;51.568;6.932;2023-08-06T00:16:42;6.83;;;6.23;;
7074;SDS011;3578;51.568;6.932;2023-08-06T00:19:10;7.00;;;6.30;;
7074;SDS011;3578;51.568;6.932;2023-08-06T00:21:37;8.73;;;6.80;;
7074;SDS011;3578;51.568;6.932;2023-08-06T00:24:04;6.63;;;5.77;;
7074;SDS011;3578;51.568;6.932;2023-08-06T00:26:31;6.63;;;5.97;;
7074;SDS011;3578;51.568;6.932;2023-08-06T00:28:58;7.30;;;6.70;;
7074;SDS011;3578;51.568;6.932;2023-08-06T00:31:25;11.90;;;6.67;;
7074;SDS011;3578;51.568;6.932;2023-08-06T00:33:53;6.87;;;6.13;;
7074;SDS011;3578;51.568;6.932;2023-08-06T00:36:20;12.47;;;6.17;;
7074;SDS011;3578;51.568;6.932;2023-08-06T00:38:47;7.27;;;6.60;;
7074;SDS011;3578;51.568;6.932;2023-08-06T00:41:15;13.53;;;6.17;;
7074;SDS011;3578;51.568;6.932;2023-08-06T00:43:42;8.83;;;6.80;;
7074;SDS011;3578;51.568;6.932;2023-08-06T00:46:09;7.77;;;6.27;;
7074;SDS011;3578;51.568;6.932;2023-08-06T00:48:36;6.60;;;6.00;;
7074;SDS011;3578;51.568;6.932;2023-08-06T00:51:05;6.27;;;5.77;;
7074;SDS011;3578;51.568;6.932;2023-08-06T00:53:32;7.40;;;6.77;;
7074;SDS011;3578;51.568;6.932;2023-08-06T00:55:59;7.03;;;6.43;;
7074;SDS011;3578;51.568;6.932;2023-08-06T00:58:26;8.10;;;7.20;;
7074;SDS011;3578;51.568;6.932;2023-08-06T01:00:54;8.07;;;6.53;;
7074;SDS011;3578;51.568;6.932;2023-08-06T01:03:21;15.23;;;6.77;;
7074;SDS011;3578;51.568;6.932;2023-08-06T01:05:48;7.30;;;6.57;;
7074;SDS011;3578;51.568;6.932;2023-08-06T01:08:20;12.73;;;6.97;;
7074;SDS011;3578;51.568;6.932;2023-08-06T01:11:05;11.87;;;6.83;;
7074;SDS011;3578;51.568;6.932;2023-08-06T01:13:47;20.53;;;6.27;;
7074;SDS011;3578;51.568;6.932;2023-08-06T01:16:20;9.37;;;6.53;;
7074;SDS011;3578;51.568;6.932;2023-08-06T01:18:50;7.17;;;6.33;;
7074;SDS011;3578;51.568;6.932;2023-08-06T01:21:18;6.47;;;5.53;;
7074;SDS011;3578;51.568;6.932;2023-08-06T01:23:46;7.00;;;6.40;;
7074;SDS011;3578;51.568;6.932;2023-08-06T01:26:14;11.33;;;5.90;;
7074;SDS011;3578;51.568;6.932;2023-08-06T01:28:51;6.47;;;5.70;;
7074;SDS011;3578;51.568;6.932;2023-08-06T01:31:24;6.90;;;5.93;;
7074;SDS011;3578;51.568;6.932;2023-08-06T01:33:56;6.13;;;5.53;;
7074;SDS011;3578;51.568;6.932;2023-08-06T01:36:26;10.07;;;5.50;;
7074;SDS011;3578;51.568;6.932;2023-08-06T01:38:56;10.87;;;5.90;;
7074;SDS011;3578;51.568;6.932;2023-08-06T01:41:23;8.23;;;5.87;;
7074;SDS011;3578;51.568;6.932;2023-08-06T01:43:50;6.40;;;5.80;;
7074;SDS011;3578;51.568;6.932;2023-08-06T01:46:17;7.23;;;5.60;;
7074;SDS011;3578;51.568;6.932;2023-08-06T01:48:44;7.70;;;5.80;;
7074;SDS011;3578;51.568;6.932;2023-08-06T01:51:11;10.30;;;6.10;;
7074;SDS011;3578;51.568;6.932;2023-08-06T01:53:39;14.27;;;5.73;;
7074;SDS011;3578;51.568;6.932;2023-08-06T01:56:06;13.27;;;6.30;;
7074;SDS011;3578;51.568;6.932;2023-08-06T01:58:33;6.63;;;5.60;;
7074;SDS011;3578;51.568;6.932;2023-08-06T02:01:00;10.43;;;6.33;;
7074;SDS011;3578;51.568;6.932;2023-08-06T02:03:27;10.23;;;6.37;;
7074;SDS011;3578;51.568;6.932;2023-08-06T02:05:55;12.83;;;6.63;;
7074;SDS011;3578;51.568;6.932;2023-08-06T02:08:22;7.53;;;6.83;;
7074;SDS011;3578;51.568;6.932;2023-08-06T02:10:50;10.83;;;6.40;;
7074;SDS011;3578;51.568;6.932;2023-08-06T02:13:17;24.20;;;7.17;;
7074;SDS011;3578;51.568;6.932;2023-08-06T02:15:44;12.10;;;6.80;;
7074;SDS011;3578;51.568;6.932;2023-08-06T02:18:12;12.70;;;6.30;;
7074;SDS011;3578;51.568;6.932;2023-08-06T02:20:39;7.20;;;6.50;;
7074;SDS011;3578;51.568;6.932;2023-08-06T02:23:07;6.60;;;5.60;;
7074;SDS011;3578;51.568;6.932;2023-08-06T02:25:34;8.53;;;6.90;;
7074;SDS011;3578;51.568;6.932;2023-08-06T02:28:03;8.47;;;5.90;;
7074;SDS011;3578;51.568;6.932;2023-08-06T02:30:30;7.57;;;5.90;;
7074;SDS011;3578;51.568;6.932;2023-08-06T02:32:57;6.60;;;5.73;;
7074;SDS011;3578;51.568;6.932;2023-08-06T02:35:24;6.63;;;5.97;;
7074;SDS011;3578;51.568;6.932;2023-08-06T02:37:51;8.63;;;6.87;;
7074;SDS011;3578;51.568;6.932;2023-08-06T02:40:17;9.20;;;7.00;;
7074;SDS011;3578;51.568;6.932;2023-08-06T02:42:44;7.63;;;6.10;;
7074;SDS011;3578;51.568;6.932;2023-08-06T02:45:13;5.90;;;5.40;;
7074;SDS011;3578;51.568;6.932;2023-08-06T02:47:40;6.67;;;6.17;;
7074;SDS011;3578;51.568;6.932;2023-08-06T02:50:07;6.53;;;5.90;;
7074;SDS011;3578;51.568;6.932;2023-08-06T02:52:34;7.27;;;6.00;;
7074;SDS011;3578;51.568;6.932;2023-08-06T02:55:04;6.60;;;6.00;;
7074;SDS011;3578;51.568;6.932;2023-08-06T02:57:32;7.03;;;6.10;;
7074;SDS011;3578;51.568;6.932;2023-08-06T02:59:59;9.60;;;6.17;;
7074;SDS011;3578;51.568;6.932;2023-08-06T03:02:27;7.80;;;5.60;;
7074;SDS011;3578;51.568;6.932;2023-08-06T03:04:54;9.97;;;6.13;;
7074;SDS011;3578;51.568;6.932;2023-08-06T03:07:21;6.97;;;6.00;;
7074;SDS011;3578;51.568;6.932;2023-08-06T03:09:48;6.40;;;5.83;;
7074;SDS011;3578;51.568;6.932;2023-08-06T03:12:15;7.60;;;5.87;;
7074;SDS011;3578;51.568;6.932;2023-08-06T03:14:42;5.87;;;5.37;;
7074;SDS011;3578;51.568;6.932;2023-08-06T03:17:09;6.33;;;5.50;;
7074;SDS011;3578;51.568;6.932;2023-08-06T03:19:37;7.83;;;6.27;;
7074;SDS011;3578;51.568;6.932;2023-08-06T03:22:04;8.63;;;5.87;;
7074;SDS011;3578;51.568;6.932;2023-08-06T03:24:32;5.90;;;5.40;;
7074;SDS011;3578;51.568;6.932;2023-08-06T03:26:59;6.07;;;5.47;;
7074;SDS011;3578;51.568;6.932;2023-08-06T03:29:26;9.93;;;6.00;;
7074;SDS011;3578;51.568;6.932;2023-08-06T03:31:53;8.43;;;6.20;;
7074;SDS011;3578;51.568;6.932;2023-08-06T03:34:20;6.17;;;5.67;;
7074;SDS011;3578;51.568;6.932;2023-08-06T03:36:49;7.17;;;5.53;;
7074;SDS011;3578;51.568;6.932;2023-08-06T03:39:15;8.43;;;6.27;;
7074;SDS011;3578;51.568;6.932;2023-08-06T03:41:42;13.50;;;6.20;;
7074;SDS011;3578;51.568;6.932;2023-08-06T03:44:09;6.80;;;6.30;;
7074;SDS011;3578;51.568;6.932;2023-08-06T03:46:36;8.50;;;5.40;;
7074;SDS011;3578;51.568;6.932;2023-08-06T03:49:03;11.77;;;6.97;;
7074;SDS011;3578;51.568;6.932;2023-08-06T03:51:30;5.97;;;5.57;;
7074;SDS011;3578;51.568;6.932;2023-08-06T03:53:58;7.17;;;6.43;;
7074;SDS011;3578;51.568;6.932;2023-08-06T03:56:25;10.30;;;6.20;;
7074;SDS011;3578;51.568;6.932;2023-08-06T03:58:52;5.53;;;5.17;;
7074;SDS011;3578;51.568;6.932;2023-08-06T04:01:19;6.47;;;5.87;;
7074;SDS011;3578;51.568;6.932;2023-08-06T04:03:46;7.83;;;6.07;;
7074;SDS011;3578;51.568;6.932;2023-08-06T04:06:13;8.33;;;5.67;;
7074;SDS011;3578;51.568;6.932;2023-08-06T04:08:40;10.70;;;5.47;;
7074;SDS011;3578;51.568;6.932;2023-08-06T04:11:08;10.80;;;6.60;;
7074;SDS011;3578;51.568;6.932;2023-08-06T04:13:35;7.03;;;5.60;;
7074;SDS011;3578;51.568;6.932;2023-08-06T04:16:02;12.03;;;6.40;;
7074;SDS011;3578;51.568;6.932;2023-08-06T04:18:30;6.53;;;6.10;;
7074;SDS011;3578;51.568;6.932;2023-08-06T04:20:57;8.67;;;6.30;;
7074;SDS011;3578;51.568;6.932;2023-08-06T04:23:24;5.93;;;5.47;;
7074;SDS011;3578;51.568;6.932;2023-08-06T04:25:51;10.40;;;6.77;;
7074;SDS011;3578;51.568;6.932;2023-08-06T04:28:19;6.53;;;5.93;;
7074;SDS011;3578;51.568;6.932;2023-08-06T04:30:46;8.03;;;5.77;;
7074;SDS011;3578;51.568;6.932;2023-08-06T04:33:13;6.07;;;5.47;;
7074;SDS011;3578;51.568;6.932;2023-08-06T04:35:40;6.70;;;6.10;;
7074;SDS011;3578;51.568;6.932;2023-08-06T04:38:07;6.77;;;5.83;;
7074;SDS011;3578;51.568;6.932;2023-08-06T04:40:34;9.33;;;6.00;;
7074;SDS011;3578;51.568;6.932;2023-08-06T04:43:02;5.00;;;4.63;;
7074;SDS011;3578;51.568;6.932;2023-08-06T04:45:30;9.77;;;6.67;;
7074;SDS011;3578;51.568;6.932;2023-08-06T04:47:57;8.60;;;6.00;;
7074;SDS011;3578;51.568;6.932;2023-08-06T04:50:24;6.50;;;5.80;;
7074;SDS011;3578;51.568;6.932;2023-08-06T04:52:51;5.90;;;5.30;;
7074;SDS011;3578;51.568;6.932;2023-08-06T04:55:18;6.87;;;6.37;;
7074;SDS011;3578;51.568;6.932;2023-08-06T04:57:45;6.80;;;5.80;;
7074;SDS011;3578;51.568;6.932;2023-08-06T05:00:12;10.83;;;5.43;;
7074;SDS011;3578;51.568;6.932;2023-08-06T05:02:40;6.50;;;5.70;;
7074;SDS011;3578;51.568;6.932;2023-08-06T05:05:07;7.20;;;4.70;;
7074;SDS011;3578;51.568;6.932;2023-08-06T05:07:35;6.20;;;4.97;;
7074;SDS011;3578;51.568;6.932;2023-08-06T05:10:02;6.77;;;5.73;;
7074;SDS011;3578;51.568;6.932;2023-08-06T05:12:29;6.53;;;5.70;;
7074;SDS011;3578;51.568;6.932;2023-08-06T05:14:56;6.10;;;5.60;;
7074;SDS011;3578;51.568;6.932;2023-08-06T05:17:23;6.60;;;4.77;;
7074;SDS011;3578;51.568;6.932;2023-08-06T05:19:51;9.83;;;5.50;;
7074;SDS011;3578;51.568;6.932;2023-08-06T05:22:18;5.97;;;5.57;;
7074;SDS011;3578;51.568;6.932;2023-08-06T05:24:45;8.00;;;6.50;;
7074;SDS011;3578;51.568;6.932;2023-08-06T05:27:12;6.00;;;5.50;;
7074;SDS011;3578;51.568;6.932;2023-08-06T05:29:39;10.40;;;5.50;;
7074;SDS011;3578;51.568;6.932;2023-08-06T05:32:06;6.37;;;5.97;;
7074;SDS011;3578;51.568;6.932;2023-08-06T05:34:34;5.70;;;5.20;;
7074;SDS011;3578;51.568;6.932;2023-08-06T05:37:02;6.23;;;5.73;;
7074;SDS011;3578;51.568;6.932;2023-08-06T05:39:30;6.90;;;5.97;;
7074;SDS011;3578;51.568;6.932;2023-08-06T05:41:57;6.03;;;5.43;;
7074;SDS011;3578;51.568;6.932;2023-08-06T05:44:24;6.50;;;5.90;;
7074;SDS011;3578;51.568;6.932;2023-08-06T05:46:51;8.43;;;5.93;;
7074;SDS011;3578;51.568;6.932;2023-08-06T05:49:18;6.03;;;5.13;;
7074;SDS011;3578;51.568;6.932;2023-08-06T05:51:45;5.67;;;5.17;;
7074;SDS011;3578;51.568;6.932;2023-08-06T05:54:13;6.23;;;5.13;;
7074;SDS011;3578;51.568;6.932;2023-08-06T05:56:40;11.43;;;5.40;;
7074;SDS011;3578;51.568;6.932;2023-08-06T05:59:07;8.80;;;5.43;;
7074;SDS011;3578;51.568;6.932;2023-08-06T06:01:34;7.00;;;4.47;;
7074;SDS011;3578;51.568;6.932;2023-08-06T06:04:01;4.87;;;4.50;;
7074;SDS011;3578;51.568;6.932;2023-08-06T06:06:29;5.07;;;4.57;;
7074;SDS011;3578;51.568;6.932;2023-08-06T06:08:56;5.77;;;4.70;;
7074;SDS011;3578;51.568;6.932;2023-08-06T06:11:24;6.30;;;5.47;;
7074;SDS011;3578;51.568;6.932;2023-08-06T06:13:51;5.67;;;5.17;;
7074;SDS011;3578;51.568;6.932;2023-08-06T06:16:18;5.10;;;4.70;;
7074;SDS011;3578;51.568;6.932;2023-08-06T06:18:45;6.10;;;4.90;;
7074;SDS011;3578;51.568;6.932;2023-08-06T06:21:12;7.63;;;4.70;;
7074;SDS011;3578;51.568;6.932;2023-08-06T06:23:39;6.13;;;5.00;;
7074;SDS011;3578;51.568;6.932;2023-08-06T06:26:05;5.90;;;5.37;;
7074;SDS011;3578;51.568;6.932;2023-08-06T06:28:34;6.33;;;4.70;;
7074;SDS011;3578;51.568;6.932;2023-08-06T06:31:01;7.20;;;5.23;;
7074;SDS011;3578;51.568;6.932;2023-08-06T06:33:28;8.60;;;5.27;;
7074;SDS011;3578;51.568;6.932;2023-08-06T06:35:55;5.70;;;5.20;;
7074;SDS011;3578;51.568;6.932;2023-08-06T06:38:22;6.83;;;4.83;;
7074;SDS011;3578;51.568;6.932;2023-08-06T06:40:55;5.43;;;4.73;;
7074;SDS011;3578;51.568;6.932;2023-08-06T06:43:24;4.57;;;4.17;;
7074;SDS011;3578;51.568;6.932;2023-08-06T06:45:57;4.47;;;4.07;;
7074;SDS011;3578;51.568;6.932;2023-08-06T06:48:24;3.97;;;3.70;;
7074;SDS011;3578;51.568;6.932;2023-08-06T06:50:53;7.77;;;4.77;;
7074;SDS011;3578;51.568;6.932;2023-08-06T06:53:20;9.50;;;4.37;;
7074;SDS011;3578;51.568;6.932;2023-08-06T06:55:52;5.80;;;3.30;;
7074;SDS011;3578;51.568;6.932;2023-08-06T06:58:19;5.53;;;4.33;;
7074;SDS011;3578;51.568;6.932;2023-08-06T07:00:46;3.57;;;2.70;;
7074;SDS011;3578;51.568;6.932;2023-08-06T07:03:14;3.90;;;2.97;;
7074;SDS011;3578;51.568;6.932;2023-08-06T07:05:41;4.80;;;2.80;;
7074;SDS011;3578;51.568;6.932;2023-08-06T07:08:10;3.53;;;3.20;;
7074;SDS011;3578;51.568;6.932;2023-08-06T07:10:37;3.83;;;3.30;;
7074;SDS011;3578;51.568;6.932;2023-08-06T07:13:04;3.10;;;3.00;;
7074;SDS011;3578;51.568;6.932;2023-08-06T07:15:31;4.77;;;3.03;;
7074;SDS011;3578;51.568;6.932;2023-08-06T07:17:58;4.23;;;3.40;;
7074;SDS011;3578;51.568;6.932;2023-08-06T07:20:26;4.00;;;3.57;;
7074;SDS011;3578;51.568;6.932;2023-08-06T07:22:54;3.73;;;3.20;;
7074;SDS011;3578;51.568;6.932;2023-08-06T07:25:21;4.83;;;2.33;;
7074;SDS011;3578;51.568;6.932;2023-08-06T07:27:48;2.60;;;2.50;;
7074;SDS011;3578;51.568;6.932;2023-08-06T07:30:15;3.37;;;3.00;;
7074;SDS011;3578;51.568;6.932;2023-08-06T07:32:42;3.30;;;2.90;;
7074;SDS011;3578;51.568;6.932;2023-08-06T07:35:09;10.43;;;3.17;;
7074;SDS011;3578;51.568;6.932;2023-08-06T07:37:39;3.70;;;3.10;;
7074;SDS011;3578;51.568;6.932;2023-08-06T07:40:06;3.00;;;2.80;;
7074;SDS011;3578;51.568;6.932;2023-08-06T07:42:34;5.30;;;2.40;;
7074;SDS011;3578;51.568;6.932;2023-08-06T07:45:01;2.77;;;2.57;;
7074;SDS011;3578;51.568;6.932;2023-08-06T07:47:30;2.87;;;2.40;;
7074;SDS011;3578;51.568;6.932;2023-08-06T07:49:57;2.50;;;2.40;;
7074;SDS011;3578;51.568;6.932;2023-08-06T07:52:24;2.77;;;2.40;;
7074;SDS011;3578;51.568;6.932;2023-08-06T07:54:53;3.73;;;2.50;;
7074;SDS011;3578;51.568;6.932;2023-08-06T07:57:20;2.30;;;2.10;;
7074;SDS011;3578;51.568;6.932;2023-08-06T07:59:47;5.53;;;3.23;;
7074;SDS011;3578;51.568;6.932;2023-08-06T08:02:14;2.10;;;2.00;;
7074;SDS011;3578;51.568;6.932;2023-08-06T08:04:41;8.87;;;2.70;;
7074;SDS011;3578;51.568;6.932;2023-08-06T08:07:09;4.07;;;2.50;;
7074;SDS011;3578;51.568;6.932;2023-08-06T08:09:37;3.13;;;2.67;;
7074;SDS011;3578;51.568;6.932;2023-08-06T08:12:05;2.40;;;2.20;;
7074;SDS011;3578;51.568;6.932;2023-08-06T08:14:33;4.50;;;3.10;;
7074;SDS011;3578;51.568;6.932;2023-08-06T08:17:01;2.63;;;2.40;;
7074;SDS011;3578;51.568;6.932;2023-08-06T08:19:28;6.30;;;2.90;;
7074;SDS011;3578;51.568;6.932;2023-08-06T08:21:55;3.90;;;2.87;;
7074;SDS011;3578;51.568;6.932;2023-08-06T08:24:22;2.53;;;2.30;;
7074;SDS011;3578;51.568;6.932;2023-08-06T08:26:50;5.70;;;2.50;;
7074;SDS011;3578;51.568;6.932;2023-08-06T08:29:18;3.23;;;3.00;;
7074;SDS011;3578;51.568;6.932;2023-08-06T08:31:46;5.73;;;3.17;;
7074;SDS011;3578;51.568;6.932;2023-08-06T08:34:14;2.93;;;2.73;;
7074;SDS011;3578;51.568;6.932;2023-08-06T08:36:41;6.53;;;3.10;;
7074;SDS011;3578;51.568;6.932;2023-08-06T08:39:08;3.03;;;2.40;;
7074;SDS011;3578;51.568;6.932;2023-08-06T08:41:36;3.83;;;3.43;;
7074;SDS011;3578;51.568;6.932;2023-08-06T08:44:04;6.17;;;3.37;;
7074;SDS011;3578;51.568;6.932;2023-08-06T08:46:36;3.33;;;3.13;;
7074;SDS011;3578;51.568;6.932;2023-08-06T08:49:04;3.77;;;2.83;;
7074;SDS011;3578;51.568;6.932;2023-08-06T08:51:31;3.77;;;2.90;;
7074;SDS011;3578;51.568;6.932;2023-08-06T08:54:00;4.20;;;2.50;;
7074;SDS011;3578;51.568;6.932;2023-08-06T08:56:29;3.40;;;3.10;;
7074;SDS011;3578;51.568;6.932;2023-08-06T08:58:57;3.07;;;2.80;;
7074;SDS011;3578;51.568;6.932;2023-08-06T09:01:24;3.90;;;3.17;;
7074;SDS011;3578;51.568;6.932;2023-08-06T09:03:53;3.93;;;3.53;;
7074;SDS011;3578;51.568;6.932;2023-08-06T09:06:21;4.00;;;3.60;;
7074;SDS011;3578;51.568;6.932;2023-08-06T09:08:50;4.67;;;2.93;;
7074;SDS011;3578;51.568;6.932;2023-08-06T09:11:27;4.03;;;3.57;;
7074;SDS011;3578;51.568;6.932;2023-08-06T09:13:56;3.67;;;3.37;;
7074;SDS011;3578;51.568;6.932;2023-08-06T09:16:24;3.90;;;3.70;;
7074;SDS011;3578;51.568;6.932;2023-08-06T09:18:52;6.67;;;3.00;;
7074;SDS011;3578;51.568;6.932;2023-08-06T09:21:20;2.87;;;2.67;;
7074;SDS011;3578;51.568;6.932;2023-08-06T09:23:47;3.37;;;2.90;;
7074;SDS011;3578;51.568;6.932;2023-08-06T09:26:14;3.53;;;3.00;;
7074;SDS011;3578;51.568;6.932;2023-08-06T09:28:41;3.60;;;3.30;;
7074;SDS011;3578;51.568;6.932;2023-08-06T09:31:08;6.13;;;4.10;;
7074;SDS011;3578;51.568;6.932;2023-08-06T09:33:36;8.20;;;4.47;;
7074;SDS011;3578;51.568;6.932;2023-08-06T09:36:09;5.10;;;4.03;;
7074;SDS011;3578;51.568;6.932;2023-08-06T09:38:37;4.50;;;4.30;;
7074;SDS011;3578;51.568;6.932;2023-08-06T09:41:06;4.77;;;4.37;;
7074;SDS011;3578;51.568;6.932;2023-08-06T09:43:39;6.93;;;5.33;;
7074;SDS011;3578;51.568;6.932;2023-08-06T09:46:11;6.90;;;6.20;;
7074;SDS011;3578;51.568;6.932;2023-08-06T09:48:44;9.00;;;6.20;;
7074;SDS011;3578;51.568;6.932;2023-08-06T09:51:13;8.10;;;6.67;;
7074;SDS011;3578;51.568;6.932;2023-08-06T09:53:40;10.90;;;6.70;;
7074;SDS011;3578;51.568;6.932;2023-08-06T09:56:08;7.90;;;7.10;;
7074;SDS011;3578;51.568;6.932;2023-08-06T09:58:36;9.83;;;6.87;;
7074;SDS011;3578;51.568;6.932;2023-08-06T10:01:04;12.30;;;8.43;;
7074;SDS011;3578;51.568;6.932;2023-08-06T10:03:32;10.03;;;8.30;;
7074;SDS011;3578;51.568;6.932;2023-08-06T10:06:00;12.53;;;8.23;;
7074;SDS011;3578;51.568;6.932;2023-08-06T10:08:33;10.67;;;8.47;;
7074;SDS011;3578;51.568;6.932;2023-08-06T10:11:00;13.93;;;8.10;;
7074;SDS011;3578;51.568;6.932;2023-08-06T10:13:30;11.33;;;7.53;;
7074;SDS011;3578;51.568;6.932;2023-08-06T10:15:59;9.47;;;8.50;;
7074;SDS011;3578;51.568;6.932;2023-08-06T10:18:27;9.17;;;7.77;;
7074;SDS011;3578;51.568;6.932;2023-08-06T10:20:55;8.27;;;7.57;;
7074;SDS011;3578;51.568;6.932;2023-08-06T10:23:22;9.20;;;8.30;;
7074;SDS011;3578;51.568;6.932;2023-08-06T10:26:03;11.67;;;8.93;;
7074;SDS011;3578;51.568;6.932;2023-08-06T10:28:34;8.73;;;7.97;;
7074;SDS011;3578;51.568;6.932;2023-08-06T10:31:02;9.07;;;8.37;;
7074;SDS011;3578;51.568;6.932;2023-08-06T10:33:39;8.27;;;7.47;;
7074;SDS011;3578;51.568;6.932;2023-08-06T10:36:11;9.70;;;8.80;;
7074;SDS011;3578;51.568;6.932;2023-08-06T10:38:46;11.87;;;10.50;;
7074;SDS011;3578;51.568;6.932;2023-08-06T10:41:15;18.20;;;12.93;;
7074;SDS011;3578;51.568;6.932;2023-08-06T10:43:49;12.63;;;11.53;;
7074;SDS011;3578;51.568;6.932;2023-08-06T10:46:23;15.33;;;12.60;;
7074;SDS011;3578;51.568;6.932;2023-08-06T10:48:53;17.40;;;13.30;;
7074;SDS011;3578;51.568;6.932;2023-08-06T10:51:20;16.00;;;14.50;;
7074;SDS011;3578;51.568;6.932;2023-08-06T10:53:49;17.00;;;15.30;;
7074;SDS011;3578;51.568;6.932;2023-08-06T10:56:17;16.63;;;14.43;;
7074;SDS011;3578;51.568;6.932;2023-08-06T10:58:47;18.13;;;15.70;;
7074;SDS011;3578;51.568;6.932;2023-08-06T11:01:15;19.70;;;17.43;;
7074;SDS011;3578;51.568;6.932;2023-08-06T11:03:42;20.80;;;18.40;;
7074;SDS011;3578;51.568;6.932;2023-08-06T11:06:16;26.30;;;18.80;;
7074;SDS011;3578;51.568;6.932;2023-08-06T11:08:47;25.30;;;18.40;;
7074;SDS011;3578;51.568;6.932;2023-08-06T11:11:16;21.33;;;18.70;;
7074;SDS011;3578;51.568;6.932;2023-08-06T11:13:44;20.80;;;18.73;;
7074;SDS011;3578;51.568;6.932;2023-08-06T11:16:13;22.43;;;19.27;;
7074;SDS011;3578;51.568;6.932;2023-08-06T11:18:42;19.40;;;17.60;;
7074;SDS011;3578;51.568;6.932;2023-08-06T11:21:09;20.07;;;18.17;;
7074;SDS011;3578;51.568;6.932;2023-08-06T11:23:37;18.63;;;16.80;;
7074;SDS011;3578;51.568;6.932;2023-08-06T11:26:06;19.60;;;17.70;;
7074;SDS011;3578;51.568;6.932;2023-08-06T11:28:34;19.50;;;17.60;;
7074;SDS011;3578;51.568;6.932;2023-08-06T11:31:01;18.73;;;17.13;;
7074;SDS011;3578;51.568;6.932;2023-08-06T11:33:28;19.97;;;17.97;;
7074;SDS011;3578;51.568;6.932;2023-08-06T11:35:56;19.53;;;17.53;;
7074;SDS011;3578;51.568;6.932;2023-08-06T11:38:25;19.77;;;17.13;;
7074;SDS011;3578;51.568;6.932;2023-08-06T11:40:53;16.67;;;13.40;;
7074;SDS011;3578;51.568;6.932;2023-08-06T11:43:21;12.20;;;9.73;;
7074;SDS011;3578;51.568;6.932;2023-08-06T11:45:49;11.73;;;7.23;;
7074;SDS011;3578;51.568;6.932;2023-08-06T11:48:18;6.07;;;5.57;;
7074;SDS011;3578;51.568;6.932;2023-08-06T11:50:45;11.67;;;6.00;;
7074;SDS011;3578;51.568;6.932;2023-08-06T11:53:12;5.33;;;4.90;;
7074;SDS011;3578;51.568;6.932;2023-08-06T11:55:41;5.70;;;5.20;;
7074;SDS011;3578;51.568;6.932;2023-08-06T11:58:09;5.37;;;4.97;;
7074;SDS011;3578;51.568;6.932;2023-08-06T12:00:39;5.47;;;5.07;;
7074;SDS011;3578;51.568;6.932;2023-08-06T12:03:06;5.47;;;4.97;;
7074;SDS011;3578;51.568;6.932;2023-08-06T12:05:32;4.77;;;4.43;;
7074;SDS011;3578;51.568;6.932;2023-08-06T12:08:00;7.43;;;3.53;;
7074;SDS011;3578;51.568;6.932;2023-08-06T12:10:30;3.63;;;3.43;;
7074;SDS011;3578;51.568;6.932;2023-08-06T12:12:59;2.50;;;2.40;;
7074;SDS011;3578;51.568;6.932;2023-08-06T12:15:27;2.00;;;1.90;;
7074;SDS011;3578;51.568;6.932;2023-08-06T12:17:56;1.90;;;1.80;;
7074;SDS011;3578;51.568;6.932;2023-08-06T12:20:22;1.97;;;1.87;;
7074;SDS011;3578;51.568;6.932;2023-08-06T12:22:50;1.50;;;1.40;;
7074;SDS011;3578;51.568;6.932;2023-08-06T12:25:18;1.10;;;1.00;;
7074;SDS011;3578;51.568;6.932;2023-08-06T12:27:45;0.90;;;0.90;;
7074;SDS011;3578;51.568;6.932;2023-08-06T12:30:12;1.47;;;1.07;;
7074;SDS011;3578;51.568;6.932;2023-08-06T12:32:39;1.00;;;1.00;;
7074;SDS011;3578;51.568;6.932;2023-08-06T12:35:08;2.30;;;1.27;;
7074;SDS011;3578;51.568;6.932;2023-08-06T12:37:36;0.70;;;0.70;;
7074;SDS011;3578;51.568;6.932;2023-08-06T12:40:04;1.43;;;0.80;;
7074;SDS011;3578;51.568;6.932;2023-08-06T12:42:33;1.80;;;1.00;;
7074;SDS011;3578;51.568;6.932;2023-08-06T12:44:59;1.00;;;1.00;;
7074;SDS011;3578;51.568;6.932;2023-08-06T12:47:27;1.00;;;1.00;;
7074;SDS011;3578;51.568;6.932;2023-08-06T12:49:54;1.20;;;0.90;;
7074;SDS011;3578;51.568;6.932;2023-08-06T12:52:23;0.90;;;0.90;;
7074;SDS011;3578;51.568;6.932;2023-08-06T12:54:49;1.00;;;1.00;;
7074;SDS011;3578;51.568;6.932;2023-08-06T12:57:16;1.20;;;1.10;;
7074;SDS011;3578;51.568;6.932;2023-08-06T12:59:43;1.07;;;1.07;;
7074;SDS011;3578;51.568;6.932;2023-08-06T13:02:10;1.17;;;0.97;;
7074;SDS011;3578;51.568;6.932;2023-08-06T13:04:37;1.00;;;1.00;;
7074;SDS011;3578;51.568;6.932;2023-08-06T13:07:04;1.37;;;1.27;;
7074;SDS011;3578;51.568;6.932;2023-08-06T13:09:33;1.23;;;1.07;;
7074;SDS011;3578;51.568;6.932;2023-08-06T13:12:00;1.17;;;1.17;;
7074;SDS011;3578;51.568;6.932;2023-08-06T13:14:30;1.10;;;1.00;;
7074;SDS011;3578;51.568;6.932;2023-08-06T13:16:58;1.00;;;1.00;;
7074;SDS011;3578;51.568;6.932;2023-08-06T13:19:27;1.30;;;1.30;;
7074;SDS011;3578;51.568;6.932;2023-08-06T13:21:58;1.43;;;1.33;;
7074;SDS011;3578;51.568;6.932;2023-08-06T13:24:31;1.10;;;1.10;;
7074;SDS011;3578;51.568;6.932;2023-08-06T13:27:00;1.70;;;1.70;;
7074;SDS011;3578;51.568;6.932;2023-08-06T13:29:28;1.50;;;1.50;;
7074;SDS011;3578;51.568;6.932;2023-08-06T13:31:55;1.60;;;1.50;;
7074;SDS011;3578;51.568;6.932;2023-08-06T13:34:22;3.13;;;2.10;;
7074;SDS011;3578;51.568;6.932;2023-08-06T13:36:49;2.20;;;1.60;;
7074;SDS011;3578;51.568;6.932;2023-08-06T13:39:16;1.90;;;1.80;;
7074;SDS011;3578;51.568;6.932;2023-08-06T13:41:44;1.90;;;1.83;;
7074;SDS011;3578;51.568;6.932;2023-08-06T13:44:11;1.97;;;1.87;;
7074;SDS011;3578;51.568;6.932;2023-08-06T13:46:39;2.27;;;2.17;;
7074;SDS011;3578;51.568;6.932;2023-08-06T13:49:08;2.13;;;2.07;;
7074;SDS011;3578;51.568;6.932;2023-08-06T13:51:35;2.97;;;2.27;;
7074;SDS011;3578;51.568;6.932;2023-08-06T13:54:03;2.37;;;2.27;;
7074;SDS011;3578;51.568;6.932;2023-08-06T13:56:30;2.30;;;2.20;;
7074;SDS011;3578;51.568;6.932;2023-08-06T13:58:59;2.60;;;2.50;;
7074;SDS011;3578;51.568;6.932;2023-08-06T14:01:26;2.17;;;2.17;;
7074;SDS011;3578;51.568;6.932;2023-08-06T14:03:53;2.70;;;2.60;;
7074;SDS011;3578;51.568;6.932;2023-08-06T14:06:20;2.73;;;2.63;;
7074;SDS011;3578;51.568;6.932;2023-08-06T14:08:47;2.83;;;2.63;;
7074;SDS011;3578;51.568;6.932;2023-08-06T14:11:14;2.50;;;2.40;;
7074;SDS011;3578;51.568;6.932;2023-08-06T14:13:41;2.13;;;2.03;;
7074;SDS011;3578;51.568;6.932;2023-08-06T14:16:09;3.00;;;2.40;;
7074;SDS011;3578;51.568;6.932;2023-08-06T14:18:36;2.80;;;2.60;;
7074;SDS011;3578;51.568;6.932;2023-08-06T14:21:03;2.00;;;1.90;;
7074;SDS011;3578;51.568;6.932;2023-08-06T14:23:30;2.50;;;2.40;;
7074;SDS011;3578;51.568;6.932;2023-08-06T14:25:57;2.40;;;2.30;;
7074;SDS011;3578;51.568;6.932;2023-08-06T14:28:24;2.47;;;2.37;;
7074;SDS011;3578;51.568;6.932;2023-08-06T14:30:51;2.80;;;2.60;;
7074;SDS011;3578;51.568;6.932;2023-08-06T14:33:19;3.57;;;2.50;;
7074;SDS011;3578;51.568;6.932;2023-08-06T14:35:47;2.70;;;2.50;;
7074;SDS011;3578;51.568;6.932;2023-08-06T14:38:14;3.10;;;2.80;;
7074;SDS011;3578;51.568;6.932;2023-08-06T14:40:40;3.70;;;2.73;;
7074;SDS011;3578;51.568;6.932;2023-08-06T14:43:09;1.80;;;1.80;;
7074;SDS011;3578;51.568;6.932;2023-08-06T14:45:37;2.87;;;2.67;;
7074;SDS011;3578;51.568;6.932;2023-08-06T14:48:05;2.77;;;2.37;;
7074;SDS011;3578;51.568;6.932;2023-08-06T14:50:34;2.30;;;2.20;;
7074;SDS011;3578;51.568;6.932;2023-08-06T14:53:03;2.87;;;2.67;;
7074;SDS011;3578;51.568;6.932;2023-08-06T14:55:30;2.43;;;2.30;;
7074;SDS011;3578;51.568;6.932;2023-08-06T14:57:58;2.20;;;2.10;;
7074;SDS011;3578;51.568;6.932;2023-08-06T15:00:25;3.80;;;2.57;;
7074;SDS011;3578;51.568;6.932;2023-08-06T15:02:54;2.57;;;2.47;;
7074;SDS011;3578;51.568;6.932;2023-08-06T15:05:20;3.00;;;2.70;;
7074;SDS011;3578;51.568;6.932;2023-08-06T15:07:49;2.67;;;2.57;;
7074;SDS011;3578;51.568;6.932;2023-08-06T15:10:18;8.47;;;2.50;;
7074;SDS011;3578;51.568;6.932;2023-08-06T15:12:45;2.57;;;2.37;;
7074;SDS011;3578;51.568;6.932;2023-08-06T15:15:12;4.23;;;3.00;;
7074;SDS011;3578;51.568;6.932;2023-08-06T15:17:39;3.10;;;2.63;;